sensor_id;sensor_type;location;lat;lon;timestamp;temperature;humidity
1602;DHT22;794;48.592;9.634;2023-02-13T00:00:28;1.50;1.00
1602;DHT22;794;48.592;9.634;2023-02-13T00:02:55;2.50;1.00
1602;DHT22;794;48.592;9.634;2023-02-13T00:05:22;2.90;1.00
1602;DHT22;794;48.592;9.634;2023-02-13T00:07:49;2.20;1.00
1602;DHT22;794;48.592;9.634;2023-02-13T00:10:16;2.70;1.00
1602;DHT22;794;48.592;9.634;2023-02-13T00:12:43;2.40;1.00
1602;DHT22;794;48.592;9.634;2023-02-13T00:15:10;2.90;1.00
1602;DHT22;794;48.592;9.634;2023-02-13T00:17:38;4.80;1.00
1602;DHT22;794;48.592;9.634;2023-02-13T00:20:07;3.60;1.00
1602;DHT22;794;48.592;9.634;2023-02-13T00:22:34;2.70;1.00
1602;DHT22;794;48.592;9.634;2023-02-13T00:25:02;2.60;1.00
1602;DHT22;794;48.592;9.634;2023-02-13T00:27:29;4.30;1.00
1602;DHT22;794;48.592;9.634;2023-02-13T00:29:56;4.00;1.00
1602;DHT22;794;48.592;9.634;2023-02-13T00:32:23;3.60;1.00
1602;DHT22;794;48.592;9.634;2023-02-13T00:34:51;3.40;1.00
1602;DHT22;794;48.592;9.634;2023-02-13T00:37:18;2.70;1.00
1602;DHT22;794;48.592;9.634;2023-02-13T00:39:45;3.50;1.00
1602;DHT22;794;48.592;9.634;2023-02-13T00:42:12;2.80;1.00
1602;DHT22;794;48.592;9.634;2023-02-13T00:44:39;2.50;1.00
1602;DHT22;794;48.592;9.634;2023-02-13T00:47:05;2.80;1.00
1602;DHT22;794;48.592;9.634;2023-02-13T00:49:32;2.70;1.00
1602;DHT22;794;48.592;9.634;2023-02-13T00:52:01;2.70;1.00
1602;DHT22;794;48.592;9.634;2023-02-13T00:54:28;3.00;1.00
1602;DHT22;794;48.592;9.634;2023-02-13T00:56:55;2.80;1.00
1602;DHT22;794;48.592;9.634;2023-02-13T00:59:22;3.00;1.00
1602;DHT22;794;48.592;9.634;2023-02-13T01:01:49;4.00;1.00
1602;DHT22;794;48.592;9.634;2023-02-13T01:04:15;2.70;1.00
1602;DHT22;794;48.592;9.634;2023-02-13T01:06:42;4.70;1.00
1602;DHT22;794;48.592;9.634;2023-02-13T01:09:11;2.70;1.00
1602;DHT22;794;48.592;9.634;2023-02-13T01:11:38;2.70;1.00
1602;DHT22;794;48.592;9.634;2023-02-13T01:14:05;2.50;1.00
1602;DHT22;794;48.592;9.634;2023-02-13T01:16:32;3.90;1.00
1602;DHT22;794;48.592;9.634;2023-02-13T01:18:59;3.20;1.00
1602;DHT22;794;48.592;9.634;2023-02-13T01:21:26;3.40;1.00
1602;DHT22;794;48.592;9.634;2023-02-13T01:23:53;4.30;1.00
1602;DHT22;794;48.592;9.634;2023-02-13T01:26:22;2.70;1.00
1602;DHT22;794;48.592;9.634;2023-02-13T01:28:52;3.10;1.00
1602;DHT22;794;48.592;9.634;2023-02-13T01:31:20;2.60;1.00
1602;DHT22;794;48.592;9.634;2023-02-13T01:33:47;4.30;1.00
1602;DHT22;794;48.592;9.634;2023-02-13T01:36:14;2.70;1.00
1602;DHT22;794;48.592;9.634;2023-02-13T01:38:41;3.10;1.00
1602;DHT22;794;48.592;9.634;2023-02-13T01:41:09;2.90;1.00
1602;DHT22;794;48.592;9.634;2023-02-13T01:43:46;4.60;1.00
1602;DHT22;794;48.592;9.634;2023-02-13T01:46:16;3.90;1.00
1602;DHT22;794;48.592;9.634;2023-02-13T01:48:44;2.30;1.00
1602;DHT22;794;48.592;9.634;2023-02-13T01:51:16;2.40;1.00
1602;DHT22;794;48.592;9.634;2023-02-13T01:53:46;3.20;1.00
1602;DHT22;794;48.592;9.634;2023-02-13T01:56:18;2.40;1.00
1602;DHT22;794;48.592;9.634;2023-02-13T01:58:51;3.00;1.00
1602;DHT22;794;48.592;9.634;2023-02-13T02:01:18;2.40;1.00
1602;DHT22;794;48.592;9.634;2023-02-13T02:03:50;4.30;1.00
1602;DHT22;794;48.592;9.634;2023-02-13T02:06:22;2.50;1.00
1602;DHT22;794;48.592;9.634;2023-02-13T02:08:50;2.90;1.00
1602;DHT22;794;48.592;9.634;2023-02-13T02:11:24;3.70;1.00
1602;DHT22;794;48.592;9.634;2023-02-13T02:13:54;2.50;1.00
1602;DHT22;794;48.592;9.634;2023-02-13T02:16:22;4.00;1.00
1602;DHT22;794;48.592;9.634;2023-02-13T02:18:49;3.00;1.00
1602;DHT22;794;48.592;9.634;2023-02-13T02:21:37;2.30;1.00
1602;DHT22;794;48.592;9.634;2023-02-13T02:24:23;2.60;1.00
1602;DHT22;794;48.592;9.634;2023-02-13T02:27:17;3.10;1.00
1602;DHT22;794;48.592;9.634;2023-02-13T02:30:17;2.10;1.00
1602;DHT22;794;48.592;9.634;2023-02-13T02:33:08;2.30;1.00
1602;DHT22;794;48.592;9.634;2023-02-13T02:35:44;3.60;1.00
1602;DHT22;794;48.592;9.634;2023-02-13T02:38:20;3.40;1.00
1602;DHT22;794;48.592;9.634;2023-02-13T02:40:57;2.50;1.00
1602;DHT22;794;48.592;9.634;2023-02-13T02:43:46;2.50;1.00
1602;DHT22;794;48.592;9.634;2023-02-13T02:46:21;2.40;1.00
1602;DHT22;794;48.592;9.634;2023-02-13T02:48:54;2.40;1.00
1602;DHT22;794;48.592;9.634;2023-02-13T02:51:46;3.70;1.00
1602;DHT22;794;48.592;9.634;2023-02-13T02:54:18;2.30;1.00
1602;DHT22;794;48.592;9.634;2023-02-13T02:57:09;2.60;1.00
1602;DHT22;794;48.592;9.634;2023-02-13T02:59:39;3.20;1.00
1602;DHT22;794;48.592;9.634;2023-02-13T03:02:25;2.20;1.00
1602;DHT22;794;48.592;9.634;2023-02-13T03:05:16;3.30;1.00
1602;DHT22;794;48.592;9.634;2023-02-13T03:08:02;3.00;1.00
1602;DHT22;794;48.592;9.634;2023-02-13T03:10:33;2.00;1.00
1602;DHT22;794;48.592;9.634;2023-02-13T03:13:32;1.80;1.00
1602;DHT22;794;48.592;9.634;2023-02-13T03:16:01;2.30;1.00
1602;DHT22;794;48.592;9.634;2023-02-13T03:18:52;3.70;1.00
1602;DHT22;794;48.592;9.634;2023-02-13T03:21:47;2.10;1.00
1602;DHT22;794;48.592;9.634;2023-02-13T03:24:42;3.80;1.00
1602;DHT22;794;48.592;9.634;2023-02-13T03:27:17;2.20;1.00
1602;DHT22;794;48.592;9.634;2023-02-13T03:30:15;3.50;1.00
1602;DHT22;794;48.592;9.634;2023-02-13T03:32:50;3.50;1.00
1602;DHT22;794;48.592;9.634;2023-02-13T03:35:27;2.80;1.00
1602;DHT22;794;48.592;9.634;2023-02-13T03:38:23;2.30;1.00
1602;DHT22;794;48.592;9.634;2023-02-13T03:40:54;2.90;1.00
1602;DHT22;794;48.592;9.634;2023-02-13T03:43:48;2.70;1.00
1602;DHT22;794;48.592;9.634;2023-02-13T03:46:18;2.70;1.00
1602;DHT22;794;48.592;9.634;2023-02-13T03:48:45;2.20;1.00
1602;DHT22;794;48.592;9.634;2023-02-13T03:51:33;3.30;1.00
1602;DHT22;794;48.592;9.634;2023-02-13T03:54:10;1.80;1.00
1602;DHT22;794;48.592;9.634;2023-02-13T03:56:39;1.70;1.00
1602;DHT22;794;48.592;9.634;2023-02-13T03:59:28;2.10;1.00
1602;DHT22;794;48.592;9.634;2023-02-13T04:02:00;2.80;1.00
1602;DHT22;794;48.592;9.634;2023-02-13T04:04:34;2.50;1.00
1602;DHT22;794;48.592;9.634;2023-02-13T04:07:08;3.40;1.00
1602;DHT22;794;48.592;9.634;2023-02-13T04:09:40;3.80;1.00
1602;DHT22;794;48.592;9.634;2023-02-13T04:12:13;2.00;1.00
1602;DHT22;794;48.592;9.634;2023-02-13T04:14:48;1.60;1.00
1602;DHT22;794;48.592;9.634;2023-02-13T04:17:18;2.80;1.00
1602;DHT22;794;48.592;9.634;2023-02-13T04:19:48;3.70;1.00
1602;DHT22;794;48.592;9.634;2023-02-13T04:22:15;1.70;1.00
1602;DHT22;794;48.592;9.634;2023-02-13T04:24:44;3.50;1.00
1602;DHT22;794;48.592;9.634;2023-02-13T04:27:12;2.70;1.00
1602;DHT22;794;48.592;9.634;2023-02-13T04:29:40;3.00;1.00
1602;DHT22;794;48.592;9.634;2023-02-13T04:32:07;1.30;1.00
1602;DHT22;794;48.592;9.634;2023-02-13T04:34:36;1.40;1.00
1602;DHT22;794;48.592;9.634;2023-02-13T04:37:03;3.10;1.00
1602;DHT22;794;48.592;9.634;2023-02-13T04:39:30;2.80;1.00
1602;DHT22;794;48.592;9.634;2023-02-13T04:41:58;1.50;1.00
1602;DHT22;794;48.592;9.634;2023-02-13T04:44:25;1.50;1.00
1602;DHT22;794;48.592;9.634;2023-02-13T04:46:52;2.20;1.00
1602;DHT22;794;48.592;9.634;2023-02-13T04:49:19;2.80;1.00
1602;DHT22;794;48.592;9.634;2023-02-13T04:51:46;2.60;1.00
1602;DHT22;794;48.592;9.634;2023-02-13T04:54:13;2.90;1.00
1602;DHT22;794;48.592;9.634;2023-02-13T04:56:40;1.30;1.00
1602;DHT22;794;48.592;9.634;2023-02-13T04:59:08;2.50;1.00
1602;DHT22;794;48.592;9.634;2023-02-13T05:01:35;1.50;1.00
1602;DHT22;794;48.592;9.634;2023-02-13T05:04:02;3.10;1.00
1602;DHT22;794;48.592;9.634;2023-02-13T05:06:29;1.50;1.00
1602;DHT22;794;48.592;9.634;2023-02-13T05:08:56;2.60;1.00
1602;DHT22;794;48.592;9.634;2023-02-13T05:11:23;3.00;1.00
1602;DHT22;794;48.592;9.634;2023-02-13T05:13:50;2.90;1.00
1602;DHT22;794;48.592;9.634;2023-02-13T05:16:18;3.10;1.00
1602;DHT22;794;48.592;9.634;2023-02-13T05:18:45;2.70;1.00
1602;DHT22;794;48.592;9.634;2023-02-13T05:21:12;3.20;1.00
1602;DHT22;794;48.592;9.634;2023-02-13T05:23:57;1.10;1.00
1602;DHT22;794;48.592;9.634;2023-02-13T05:26:24;1.20;1.00
1602;DHT22;794;48.592;9.634;2023-02-13T05:28:50;2.20;1.00
1602;DHT22;794;48.592;9.634;2023-02-13T05:31:38;2.60;1.00
1602;DHT22;794;48.592;9.634;2023-02-13T05:34:05;1.70;1.00
1602;DHT22;794;48.592;9.634;2023-02-13T05:36:32;2.90;1.00
1602;DHT22;794;48.592;9.634;2023-02-13T05:38:59;2.30;1.00
1602;DHT22;794;48.592;9.634;2023-02-13T05:41:26;2.80;1.00
1602;DHT22;794;48.592;9.634;2023-02-13T05:43:53;-0.80;1.00
1602;DHT22;794;48.592;9.634;2023-02-13T05:46:20;0.70;1.00
1602;DHT22;794;48.592;9.634;2023-02-13T05:48:49;2.10;1.00
1602;DHT22;794;48.592;9.634;2023-02-13T05:51:16;1.60;1.00
1602;DHT22;794;48.592;9.634;2023-02-13T05:53:42;0.60;1.00
1602;DHT22;794;48.592;9.634;2023-02-13T05:56:10;0.20;1.00
1602;DHT22;794;48.592;9.634;2023-02-13T05:58:36;2.20;1.00
1602;DHT22;794;48.592;9.634;2023-02-13T06:01:04;2.40;1.00
1602;DHT22;794;48.592;9.634;2023-02-13T06:03:31;0.00;1.00
1602;DHT22;794;48.592;9.634;2023-02-13T06:06:00;2.30;1.00
1602;DHT22;794;48.592;9.634;2023-02-13T06:08:27;0.40;1.00
1602;DHT22;794;48.592;9.634;2023-02-13T06:10:54;2.00;1.00
1602;DHT22;794;48.592;9.634;2023-02-13T06:13:21;1.40;1.00
1602;DHT22;794;48.592;9.634;2023-02-13T06:15:48;2.10;1.00
1602;DHT22;794;48.592;9.634;2023-02-13T06:18:16;1.50;1.00
1602;DHT22;794;48.592;9.634;2023-02-13T06:20:43;0.80;1.00
1602;DHT22;794;48.592;9.634;2023-02-13T06:23:11;0.20;1.00
1602;DHT22;794;48.592;9.634;2023-02-13T06:25:38;1.20;1.00
1602;DHT22;794;48.592;9.634;2023-02-13T06:28:05;1.20;1.00
1602;DHT22;794;48.592;9.634;2023-02-13T06:30:33;2.20;1.00
1602;DHT22;794;48.592;9.634;2023-02-13T06:33:00;2.40;1.00
1602;DHT22;794;48.592;9.634;2023-02-13T06:35:27;0.20;1.00
1602;DHT22;794;48.592;9.634;2023-02-13T06:37:54;2.20;1.00
1602;DHT22;794;48.592;9.634;2023-02-13T06:40:22;1.70;1.00
1602;DHT22;794;48.592;9.634;2023-02-13T06:42:49;2.40;1.00
1602;DHT22;794;48.592;9.634;2023-02-13T06:45:16;1.40;1.00
1602;DHT22;794;48.592;9.634;2023-02-13T06:47:45;0.00;1.00
1602;DHT22;794;48.592;9.634;2023-02-13T06:50:13;0.20;1.00
1602;DHT22;794;48.592;9.634;2023-02-13T06:52:45;1.50;1.00
1602;DHT22;794;48.592;9.634;2023-02-13T06:55:12;2.30;1.00
1602;DHT22;794;48.592;9.634;2023-02-13T06:57:41;0.90;1.00
1602;DHT22;794;48.592;9.634;2023-02-13T07:00:08;1.50;1.00
1602;DHT22;794;48.592;9.634;2023-02-13T07:02:38;0.10;1.00
1602;DHT22;794;48.592;9.634;2023-02-13T07:05:05;0.40;1.00
1602;DHT22;794;48.592;9.634;2023-02-13T07:07:33;0.40;1.00
1602;DHT22;794;48.592;9.634;2023-02-13T07:10:00;0.00;1.00
1602;DHT22;794;48.592;9.634;2023-02-13T07:12:27;0.60;1.00
1602;DHT22;794;48.592;9.634;2023-02-13T07:14:55;0.50;1.00
1602;DHT22;794;48.592;9.634;2023-02-13T07:17:22;0.50;1.00
1602;DHT22;794;48.592;9.634;2023-02-13T07:19:49;2.50;1.00
1602;DHT22;794;48.592;9.634;2023-02-13T07:22:16;2.10;1.00
1602;DHT22;794;48.592;9.634;2023-02-13T07:24:42;0.60;1.00
1602;DHT22;794;48.592;9.634;2023-02-13T07:27:09;2.80;1.00
1602;DHT22;794;48.592;9.634;2023-02-13T07:29:36;2.70;1.00
1602;DHT22;794;48.592;9.634;2023-02-13T07:32:05;2.00;1.00
1602;DHT22;794;48.592;9.634;2023-02-13T07:34:33;1.30;1.00
1602;DHT22;794;48.592;9.634;2023-02-13T07:37:00;0.70;1.00
1602;DHT22;794;48.592;9.634;2023-02-13T07:39:27;0.80;1.00
1602;DHT22;794;48.592;9.634;2023-02-13T07:41:56;0.90;1.00
1602;DHT22;794;48.592;9.634;2023-02-13T07:44:23;2.30;1.00
1602;DHT22;794;48.592;9.634;2023-02-13T07:46:50;1.30;1.00
1602;DHT22;794;48.592;9.634;2023-02-13T07:49:18;2.80;1.00
1602;DHT22;794;48.592;9.634;2023-02-13T07:51:45;0.90;1.00
1602;DHT22;794;48.592;9.634;2023-02-13T07:54:12;0.90;1.00
1602;DHT22;794;48.592;9.634;2023-02-13T07:56:39;1.20;1.00
1602;DHT22;794;48.592;9.634;2023-02-13T07:59:05;0.90;1.00
1602;DHT22;794;48.592;9.634;2023-02-13T08:01:32;1.10;1.00
1602;DHT22;794;48.592;9.634;2023-02-13T08:03:59;2.70;1.00
1602;DHT22;794;48.592;9.634;2023-02-13T08:06:28;2.10;1.00
1602;DHT22;794;48.592;9.634;2023-02-13T08:08:54;2.10;1.00
1602;DHT22;794;48.592;9.634;2023-02-13T08:11:35;0.90;1.00
1602;DHT22;794;48.592;9.634;2023-02-13T08:14:21;1.20;1.00
1602;DHT22;794;48.592;9.634;2023-02-13T08:16:49;1.60;1.00
1602;DHT22;794;48.592;9.634;2023-02-13T08:19:16;2.40;1.00
1602;DHT22;794;48.592;9.634;2023-02-13T08:21:44;1.10;1.00
1602;DHT22;794;48.592;9.634;2023-02-13T08:24:12;1.40;1.00
1602;DHT22;794;48.592;9.634;2023-02-13T08:26:39;1.90;1.00
1602;DHT22;794;48.592;9.634;2023-02-13T08:29:06;2.60;1.00
1602;DHT22;794;48.592;9.634;2023-02-13T08:31:33;3.30;1.00
1602;DHT22;794;48.592;9.634;2023-02-13T08:34:00;2.20;1.00
1602;DHT22;794;48.592;9.634;2023-02-13T08:36:27;2.80;1.00
1602;DHT22;794;48.592;9.634;2023-02-13T08:38:55;1.90;1.00
1602;DHT22;794;48.592;9.634;2023-02-13T08:41:22;3.80;1.00
1602;DHT22;794;48.592;9.634;2023-02-13T08:43:49;2.60;1.00
1602;DHT22;794;48.592;9.634;2023-02-13T08:46:17;4.90;1.00
1602;DHT22;794;48.592;9.634;2023-02-13T08:48:44;4.20;1.00
1602;DHT22;794;48.592;9.634;2023-02-13T08:51:12;5.90;1.00
1602;DHT22;794;48.592;9.634;2023-02-13T08:53:40;7.70;1.00
1602;DHT22;794;48.592;9.634;2023-02-13T08:56:09;9.00;1.00
1602;DHT22;794;48.592;9.634;2023-02-13T08:58:36;10.20;1.00
1602;DHT22;794;48.592;9.634;2023-02-13T09:01:05;10.70;1.00
1602;DHT22;794;48.592;9.634;2023-02-13T09:03:32;10.60;1.00
1602;DHT22;794;48.592;9.634;2023-02-13T09:06:00;10.80;1.00
1602;DHT22;794;48.592;9.634;2023-02-13T09:08:41;12.40;1.00
1602;DHT22;794;48.592;9.634;2023-02-13T09:11:09;12.80;1.00
1602;DHT22;794;48.592;9.634;2023-02-13T09:13:36;12.60;1.00
1602;DHT22;794;48.592;9.634;2023-02-13T09:16:05;11.20;1.00
1602;DHT22;794;48.592;9.634;2023-02-13T09:18:33;10.50;1.00
1602;DHT22;794;48.592;9.634;2023-02-13T09:21:02;9.80;1.00
1602;DHT22;794;48.592;9.634;2023-02-13T09:23:30;8.30;1.00
1602;DHT22;794;48.592;9.634;2023-02-13T09:25:58;6.70;1.00
1602;DHT22;794;48.592;9.634;2023-02-13T09:28:28;7.20;1.00
1602;DHT22;794;48.592;9.634;2023-02-13T09:30:55;6.40;1.00
1602;DHT22;794;48.592;9.634;2023-02-13T09:33:22;5.70;1.00
1602;DHT22;794;48.592;9.634;2023-02-13T09:35:49;4.90;1.00
1602;DHT22;794;48.592;9.634;2023-02-13T09:38:16;5.00;1.00
1602;DHT22;794;48.592;9.634;2023-02-13T09:40:48;4.90;1.00
1602;DHT22;794;48.592;9.634;2023-02-13T09:43:20;6.10;1.00
1602;DHT22;794;48.592;9.634;2023-02-13T09:45:52;4.40;1.00
1602;DHT22;794;48.592;9.634;2023-02-13T09:48:27;4.40;1.00
1602;DHT22;794;48.592;9.634;2023-02-13T09:50:55;4.60;1.00
1602;DHT22;794;48.592;9.634;2023-02-13T09:53:23;4.70;1.00
1602;DHT22;794;48.592;9.634;2023-02-13T09:55:59;4.80;1.00
1602;DHT22;794;48.592;9.634;2023-02-13T09:58:39;5.00;1.00
1602;DHT22;794;48.592;9.634;2023-02-13T10:01:18;4.30;1.00
1602;DHT22;794;48.592;9.634;2023-02-13T10:03:53;5.20;1.00
1602;DHT22;794;48.592;9.634;2023-02-13T10:06:29;4.60;1.00
1602;DHT22;794;48.592;9.634;2023-02-13T10:09:04;4.70;1.00
1602;DHT22;794;48.592;9.634;2023-02-13T10:14:31;4.30;1.00
1602;DHT22;794;48.592;9.634;2023-02-13T10:17:05;4.70;1.00
1602;DHT22;794;48.592;9.634;2023-02-13T10:19:36;4.50;1.00
1602;DHT22;794;48.592;9.634;2023-02-13T10:22:10;5.60;1.00
1602;DHT22;794;48.592;9.634;2023-02-13T10:24:42;5.50;1.00
1602;DHT22;794;48.592;9.634;2023-02-13T10:27:18;5.40;1.00
1602;DHT22;794;48.592;9.634;2023-02-13T10:29:49;6.00;1.00
1602;DHT22;794;48.592;9.634;2023-02-13T10:32:43;6.00;1.00
1602;DHT22;794;48.592;9.634;2023-02-13T10:35:20;6.10;1.00
1602;DHT22;794;48.592;9.634;2023-02-13T10:37:54;5.80;1.00
1602;DHT22;794;48.592;9.634;2023-02-13T10:40:27;5.70;1.00
1602;DHT22;794;48.592;9.634;2023-02-13T10:43:02;5.70;1.00
1602;DHT22;794;48.592;9.634;2023-02-13T10:45:46;5.40;1.00
1602;DHT22;794;48.592;9.634;2023-02-13T10:48:33;5.00;1.00
1602;DHT22;794;48.592;9.634;2023-02-13T10:51:10;4.80;1.00
1602;DHT22;794;48.592;9.634;2023-02-13T10:53:52;3.40;1.00
1602;DHT22;794;48.592;9.634;2023-02-13T10:56:27;6.00;1.00
1602;DHT22;794;48.592;9.634;2023-02-13T10:59:15;5.40;1.00
1602;DHT22;794;48.592;9.634;2023-02-13T11:01:47;5.50;1.00
1602;DHT22;794;48.592;9.634;2023-02-13T11:04:19;5.70;1.00
1602;DHT22;794;48.592;9.634;2023-02-13T11:06:54;5.50;1.00
1602;DHT22;794;48.592;9.634;2023-02-13T11:09:22;5.30;1.00
1602;DHT22;794;48.592;9.634;2023-02-13T11:11:49;6.30;1.00
1602;DHT22;794;48.592;9.634;2023-02-13T11:14:18;5.90;1.00
1602;DHT22;794;48.592;9.634;2023-02-13T11:16:52;6.50;1.00
1602;DHT22;794;48.592;9.634;2023-02-13T11:19:25;6.10;1.00
1602;DHT22;794;48.592;9.634;2023-02-13T11:21:57;6.00;1.00
1602;DHT22;794;48.592;9.634;2023-02-13T11:24:25;6.40;1.00
1602;DHT22;794;48.592;9.634;2023-02-13T11:26:57;5.70;1.00
1602;DHT22;794;48.592;9.634;2023-02-13T11:29:27;5.50;1.00
1602;DHT22;794;48.592;9.634;2023-02-13T11:32:04;5.90;1.00
1602;DHT22;794;48.592;9.634;2023-02-13T11:34:34;6.20;1.00
1602;DHT22;794;48.592;9.634;2023-02-13T11:37:15;4.40;1.00
1602;DHT22;794;48.592;9.634;2023-02-13T11:39:43;6.20;1.00
1602;DHT22;794;48.592;9.634;2023-02-13T11:42:12;5.60;1.00
1602;DHT22;794;48.592;9.634;2023-02-13T11:44:41;5.80;1.00
1602;DHT22;794;48.592;9.634;2023-02-13T11:47:10;5.60;1.00
1602;DHT22;794;48.592;9.634;2023-02-13T11:49:45;6.60;1.00
1602;DHT22;794;48.592;9.634;2023-02-13T11:52:24;6.50;1.00
1602;DHT22;794;48.592;9.634;2023-02-13T11:54:56;5.10;1.00
1602;DHT22;794;48.592;9.634;2023-02-13T11:57:27;4.90;1.00
1602;DHT22;794;48.592;9.634;2023-02-13T11:59:55;4.70;1.00
1602;DHT22;794;48.592;9.634;2023-02-13T12:02:24;4.70;1.00
1602;DHT22;794;48.592;9.634;2023-02-13T12:04:54;5.20;1.00
1602;DHT22;794;48.592;9.634;2023-02-13T12:07:23;5.10;1.00
1602;DHT22;794;48.592;9.634;2023-02-13T12:09:56;5.40;1.00
1602;DHT22;794;48.592;9.634;2023-02-13T12:12:32;6.20;1.00
1602;DHT22;794;48.592;9.634;2023-02-13T12:15:01;4.70;1.00
1602;DHT22;794;48.592;9.634;2023-02-13T12:17:31;5.10;1.00
1602;DHT22;794;48.592;9.634;2023-02-13T12:20:02;5.30;1.00
1602;DHT22;794;48.592;9.634;2023-02-13T12:22:31;5.50;1.00
1602;DHT22;794;48.592;9.634;2023-02-13T12:25:38;5.50;1.00
1602;DHT22;794;48.592;9.634;2023-02-13T12:28:13;5.50;1.00
1602;DHT22;794;48.592;9.634;2023-02-13T12:31:17;5.50;1.00
1602;DHT22;794;48.592;9.634;2023-02-13T12:34:10;5.70;1.00
1602;DHT22;794;48.592;9.634;2023-02-13T12:36:48;6.10;1.00
1602;DHT22;794;48.592;9.634;2023-02-13T12:39:25;6.30;1.00
1602;DHT22;794;48.592;9.634;2023-02-13T12:42:11;6.00;1.00
1602;DHT22;794;48.592;9.634;2023-02-13T12:44:57;5.90;1.00
1602;DHT22;794;48.592;9.634;2023-02-13T12:47:29;5.80;1.00
1602;DHT22;794;48.592;9.634;2023-02-13T12:50:11;5.60;1.00
1602;DHT22;794;48.592;9.634;2023-02-13T12:52:47;5.70;1.00
1602;DHT22;794;48.592;9.634;2023-02-13T12:55:26;5.80;1.00
1602;DHT22;794;48.592;9.634;2023-02-13T12:58:04;5.80;1.00
1602;DHT22;794;48.592;9.634;2023-02-13T13:00:42;6.00;1.00
1602;DHT22;794;48.592;9.634;2023-02-13T13:03:34;6.00;1.00
1602;DHT22;794;48.592;9.634;2023-02-13T13:06:28;6.00;1.00
1602;DHT22;794;48.592;9.634;2023-02-13T13:09:23;4.80;1.00
1602;DHT22;794;48.592;9.634;2023-02-13T13:12:07;4.70;1.00
1602;DHT22;794;48.592;9.634;2023-02-13T13:14:43;5.20;1.00
1602;DHT22;794;48.592;9.634;2023-02-13T13:17:21;4.20;1.00
1602;DHT22;794;48.592;9.634;2023-02-13T13:20:00;4.40;1.00
1602;DHT22;794;48.592;9.634;2023-02-13T13:22:34;4.80;1.00
1602;DHT22;794;48.592;9.634;2023-02-13T13:25:11;4.40;1.00
1602;DHT22;794;48.592;9.634;2023-02-13T13:27:44;4.20;1.00
1602;DHT22;794;48.592;9.634;2023-02-13T13:30:17;2.00;1.00
1602;DHT22;794;48.592;9.634;2023-02-13T13:32:45;4.50;1.00
1602;DHT22;794;48.592;9.634;2023-02-13T13:35:15;4.60;1.00
1602;DHT22;794;48.592;9.634;2023-02-13T13:37:45;4.20;1.00
1602;DHT22;794;48.592;9.634;2023-02-13T13:40:36;4.50;1.00
1602;DHT22;794;48.592;9.634;2023-02-13T13:43:15;4.20;1.00
1602;DHT22;794;48.592;9.634;2023-02-13T13:45:47;4.20;1.00
1602;DHT22;794;48.592;9.634;2023-02-13T13:48:50;4.00;1.00
1602;DHT22;794;48.592;9.634;2023-02-13T13:51:21;4.10;1.00
1602;DHT22;794;48.592;9.634;2023-02-13T13:54:22;3.90;1.00
1602;DHT22;794;48.592;9.634;2023-02-13T14:03:20;4.40;1.00
1602;DHT22;794;48.592;9.634;2023-02-13T14:06:00;4.40;1.00
1602;DHT22;794;48.592;9.634;2023-02-13T14:11:42;3.90;1.00
1602;DHT22;794;48.592;9.634;2023-02-13T14:17:51;4.00;1.00
1602;DHT22;794;48.592;9.634;2023-02-13T14:20:37;4.10;1.00
1602;DHT22;794;48.592;9.634;2023-02-13T14:23:32;4.60;1.00
1602;DHT22;794;48.592;9.634;2023-02-13T14:29:23;4.00;1.00
1602;DHT22;794;48.592;9.634;2023-02-13T14:32:16;4.10;1.00
1602;DHT22;794;48.592;9.634;2023-02-13T14:34:55;4.60;1.00
1602;DHT22;794;48.592;9.634;2023-02-13T14:37:35;4.60;1.00
1602;DHT22;794;48.592;9.634;2023-02-13T14:43:26;4.40;1.00
1602;DHT22;794;48.592;9.634;2023-02-13T14:45:56;4.30;1.00
1602;DHT22;794;48.592;9.634;2023-02-13T14:48:33;4.90;1.00
1602;DHT22;794;48.592;9.634;2023-02-13T14:51:04;4.30;1.00
1602;DHT22;794;48.592;9.634;2023-02-13T14:53:38;4.30;1.00
1602;DHT22;794;48.592;9.634;2023-02-13T14:56:12;5.30;1.00
1602;DHT22;794;48.592;9.634;2023-02-13T14:58:47;4.50;1.00
1602;DHT22;794;48.592;9.634;2023-02-13T15:01:23;4.70;1.00
1602;DHT22;794;48.592;9.634;2023-02-13T15:03:53;5.20;1.00
1602;DHT22;794;48.592;9.634;2023-02-13T15:06:27;4.90;1.00
1602;DHT22;794;48.592;9.634;2023-02-13T15:08:56;5.20;1.00
1602;DHT22;794;48.592;9.634;2023-02-13T15:11:36;4.60;1.00
1602;DHT22;794;48.592;9.634;2023-02-13T15:14:21;4.00;1.00
1602;DHT22;794;48.592;9.634;2023-02-13T15:16:52;4.30;1.00
1602;DHT22;794;48.592;9.634;2023-02-13T15:19:21;4.00;1.00
1602;DHT22;794;48.592;9.634;2023-02-13T15:21:53;3.90;1.00
1602;DHT22;794;48.592;9.634;2023-02-13T15:24:21;3.90;1.00
1602;DHT22;794;48.592;9.634;2023-02-13T15:26:51;4.50;1.00
1602;DHT22;794;48.592;9.634;2023-02-13T15:29:19;1.40;1.00
1602;DHT22;794;48.592;9.634;2023-02-13T15:31:46;4.40;1.00
1602;DHT22;794;48.592;9.634;2023-02-13T15:34:22;3.50;1.00
1602;DHT22;794;48.592;9.634;2023-02-13T15:36:52;4.20;1.00
1602;DHT22;794;48.592;9.634;2023-02-13T15:39:23;3.60;1.00
1602;DHT22;794;48.592;9.634;2023-02-13T15:41:53;3.50;1.00
1602;DHT22;794;48.592;9.634;2023-02-13T15:44:24;3.50;1.00
1602;DHT22;794;48.592;9.634;2023-02-13T15:46:53;3.50;1.00
1602;DHT22;794;48.592;9.634;2023-02-13T15:49:22;3.60;1.00
1602;DHT22;794;48.592;9.634;2023-02-13T15:52:00;3.40;1.00
1602;DHT22;794;48.592;9.634;2023-02-13T15:54:30;3.60;1.00
1602;DHT22;794;48.592;9.634;2023-02-13T15:57:02;3.70;1.00
1602;DHT22;794;48.592;9.634;2023-02-13T15:59:34;3.70;1.00
1602;DHT22;794;48.592;9.634;2023-02-13T16:02:02;3.50;1.00
1602;DHT22;794;48.592;9.634;2023-02-13T16:04:30;4.80;1.00
1602;DHT22;794;48.592;9.634;2023-02-13T16:06:59;3.40;1.00
1602;DHT22;794;48.592;9.634;2023-02-13T16:09:30;3.60;1.00
1602;DHT22;794;48.592;9.634;2023-02-13T16:12:02;3.50;1.00
1602;DHT22;794;48.592;9.634;2023-02-13T16:14:33;3.60;1.00
1602;DHT22;794;48.592;9.634;2023-02-13T16:17:04;3.50;1.00
1602;DHT22;794;48.592;9.634;2023-02-13T16:19:38;3.00;1.00
1602;DHT22;794;48.592;9.634;2023-02-13T16:22:23;4.00;1.00
1602;DHT22;794;48.592;9.634;2023-02-13T16:24:54;3.30;1.00
1602;DHT22;794;48.592;9.634;2023-02-13T16:27:26;2.80;1.00
1602;DHT22;794;48.592;9.634;2023-02-13T16:29:56;2.80;1.00
1602;DHT22;794;48.592;9.634;2023-02-13T16:32:27;4.40;1.00
1602;DHT22;794;48.592;9.634;2023-02-13T16:34:55;3.50;1.00
1602;DHT22;794;48.592;9.634;2023-02-13T16:37:28;4.90;1.00
1602;DHT22;794;48.592;9.634;2023-02-13T16:39:55;3.80;1.00
1602;DHT22;794;48.592;9.634;2023-02-13T16:42:22;3.20;1.00
1602;DHT22;794;48.592;9.634;2023-02-13T16:44:49;3.30;1.00
1602;DHT22;794;48.592;9.634;2023-02-13T16:47:21;2.60;1.00
1602;DHT22;794;48.592;9.634;2023-02-13T16:49:53;2.50;1.00
1602;DHT22;794;48.592;9.634;2023-02-13T16:52:22;3.40;1.00
1602;DHT22;794;48.592;9.634;2023-02-13T16:54:54;3.20;1.00
1602;DHT22;794;48.592;9.634;2023-02-13T16:57:25;3.20;1.00
1602;DHT22;794;48.592;9.634;2023-02-13T17:00:00;3.90;1.00
1602;DHT22;794;48.592;9.634;2023-02-13T17:02:38;3.70;1.00
1602;DHT22;794;48.592;9.634;2023-02-13T17:05:20;4.60;1.00
1602;DHT22;794;48.592;9.634;2023-02-13T17:07:48;2.60;1.00
1602;DHT22;794;48.592;9.634;2023-02-13T17:10:20;2.40;1.00
1602;DHT22;794;48.592;9.634;2023-02-13T17:12:48;2.70;1.00
1602;DHT22;794;48.592;9.634;2023-02-13T17:15:17;2.80;1.00
1602;DHT22;794;48.592;9.634;2023-02-13T17:17:45;2.50;1.00
1602;DHT22;794;48.592;9.634;2023-02-13T17:20:15;4.20;1.00
1602;DHT22;794;48.592;9.634;2023-02-13T17:22:43;2.60;1.00
1602;DHT22;794;48.592;9.634;2023-02-13T17:25:16;2.70;1.00
1602;DHT22;794;48.592;9.634;2023-02-13T17:27:45;2.90;1.00
1602;DHT22;794;48.592;9.634;2023-02-13T17:30:13;4.00;1.00
1602;DHT22;794;48.592;9.634;2023-02-13T17:32:41;2.30;1.00
1602;DHT22;794;48.592;9.634;2023-02-13T17:35:09;2.70;1.00
1602;DHT22;794;48.592;9.634;2023-02-13T17:37:37;2.30;1.00
1602;DHT22;794;48.592;9.634;2023-02-13T17:40:06;3.60;1.00
1602;DHT22;794;48.592;9.634;2023-02-13T17:42:35;2.30;1.00
1602;DHT22;794;48.592;9.634;2023-02-13T17:45:04;4.20;1.00
1602;DHT22;794;48.592;9.634;2023-02-13T17:47:31;2.30;1.00